sensor_id;sensor_type;location;lat;lon;timestamp;P1;durP1;ratioP1;P2;durP2;ratioP2
944;SDS011;459;48.676;9.034;2023-03-19T00:02:16;9.40;;;6.73;;
944;SDS011;459;48.676;9.034;2023-03-19T00:04:41;10.57;;;6.93;;
944;SDS011;459;48.676;9.034;2023-03-19T00:07:06;8.40;;;7.60;;
944;SDS011;459;48.676;9.034;2023-03-19T00:09:31;9.47;;;7.60;;
944;SDS011;459;48.676;9.034;2023-03-19T00:11:56;6.83;;;6.10;;
944;SDS011;459;48.676;9.034;2023-03-19T00:14:22;8.20;;;5.90;;
944;SDS011;459;48.676;9.034;2023-03-19T00:16:47;11.13;;;7.07;;
944;SDS011;459;48.676;9.034;2023-03-19T00:19:12;12.00;;;6.57;;
944;SDS011;459;48.676;9.034;2023-03-19T00:21:38;7.33;;;5.67;;
944;SDS011;459;48.676;9.034;2023-03-19T00:24:03;7.03;;;5.90;;
944;SDS011;459;48.676;9.034;2023-03-19T00:26:29;6.83;;;6.13;;
944;SDS011;459;48.676;9.034;2023-03-19T00:28:55;7.60;;;5.70;;
944;SDS011;459;48.676;9.034;2023-03-19T00:31:21;6.40;;;5.80;;
944;SDS011;459;48.676;9.034;2023-03-19T00:33:46;7.83;;;6.23;;
944;SDS011;459;48.676;9.034;2023-03-19T00:36:12;6.83;;;6.00;;
944;SDS011;459;48.676;9.034;2023-03-19T00:38:37;8.13;;;5.53;;
944;SDS011;459;48.676;9.034;2023-03-19T00:41:03;8.47;;;6.10;;
944;SDS011;459;48.676;9.034;2023-03-19T00:43:29;7.23;;;6.37;;
944;SDS011;459;48.676;9.034;2023-03-19T00:45:54;8.93;;;6.43;;
944;SDS011;459;48.676;9.034;2023-03-19T00:48:19;8.00;;;7.13;;
944;SDS011;459;48.676;9.034;2023-03-19T00:50:45;10.27;;;7.03;;
944;SDS011;459;48.676;9.034;2023-03-19T00:53:10;9.70;;;7.80;;
944;SDS011;459;48.676;9.034;2023-03-19T00:55:35;8.37;;;7.67;;
944;SDS011;459;48.676;9.034;2023-03-19T00:58:01;10.13;;;6.40;;
944;SDS011;459;48.676;9.034;2023-03-19T01:00:26;9.17;;;7.03;;
944;SDS011;459;48.676;9.034;2023-03-19T01:02:52;11.30;;;6.50;;
944;SDS011;459;48.676;9.034;2023-03-19T01:05:17;9.90;;;6.20;;
944;SDS011;459;48.676;9.034;2023-03-19T01:07:42;7.10;;;6.20;;
944;SDS011;459;48.676;9.034;2023-03-19T01:10:08;8.87;;;7.23;;
944;SDS011;459;48.676;9.034;2023-03-19T01:12:33;9.90;;;6.83;;
944;SDS011;459;48.676;9.034;2023-03-19T01:14:59;10.17;;;7.53;;
944;SDS011;459;48.676;9.034;2023-03-19T01:17:24;8.73;;;6.40;;
944;SDS011;459;48.676;9.034;2023-03-19T01:19:49;5.90;;;5.33;;
944;SDS011;459;48.676;9.034;2023-03-19T01:22:15;5.50;;;4.80;;
944;SDS011;459;48.676;9.034;2023-03-19T01:24:41;5.50;;;4.90;;
944;SDS011;459;48.676;9.034;2023-03-19T01:27:06;6.00;;;5.40;;
944;SDS011;459;48.676;9.034;2023-03-19T01:29:32;7.87;;;5.10;;
944;SDS011;459;48.676;9.034;2023-03-19T01:31:57;6.67;;;5.97;;
944;SDS011;459;48.676;9.034;2023-03-19T01:34:22;4.57;;;4.17;;
944;SDS011;459;48.676;9.034;2023-03-19T01:36:48;3.53;;;3.33;;
944;SDS011;459;48.676;9.034;2023-03-19T01:39:13;4.10;;;3.00;;
944;SDS011;459;48.676;9.034;2023-03-19T01:41:38;4.30;;;3.90;;
944;SDS011;459;48.676;9.034;2023-03-19T01:44:21;7.77;;;4.00;;
944;SDS011;459;48.676;9.034;2023-03-19T01:46:46;5.00;;;3.90;;
944;SDS011;459;48.676;9.034;2023-03-19T01:49:11;3.60;;;3.30;;
944;SDS011;459;48.676;9.034;2023-03-19T01:51:38;8.67;;;4.07;;
944;SDS011;459;48.676;9.034;2023-03-19T01:54:07;3.97;;;3.67;;
944;SDS011;459;48.676;9.034;2023-03-19T01:56:38;4.10;;;3.80;;
944;SDS011;459;48.676;9.034;2023-03-19T01:59:06;5.97;;;5.37;;
944;SDS011;459;48.676;9.034;2023-03-19T02:01:33;5.87;;;5.10;;
944;SDS011;459;48.676;9.034;2023-03-19T02:04:01;7.80;;;4.90;;
944;SDS011;459;48.676;9.034;2023-03-19T02:06:27;6.70;;;6.10;;
944;SDS011;459;48.676;9.034;2023-03-19T02:08:54;10.07;;;7.10;;
944;SDS011;459;48.676;9.034;2023-03-19T02:11:20;7.60;;;7.00;;
944;SDS011;459;48.676;9.034;2023-03-19T02:13:45;8.40;;;6.67;;
944;SDS011;459;48.676;9.034;2023-03-19T02:16:11;7.73;;;6.77;;
944;SDS011;459;48.676;9.034;2023-03-19T02:18:36;7.27;;;6.03;;
944;SDS011;459;48.676;9.034;2023-03-19T02:21:14;7.00;;;6.40;;
944;SDS011;459;48.676;9.034;2023-03-19T02:23:42;8.00;;;6.10;;
944;SDS011;459;48.676;9.034;2023-03-19T02:26:13;8.53;;;5.43;;
944;SDS011;459;48.676;9.034;2023-03-19T02:28:40;7.13;;;5.50;;
944;SDS011;459;48.676;9.034;2023-03-19T02:31:06;6.47;;;5.40;;
944;SDS011;459;48.676;9.034;2023-03-19T02:33:31;8.70;;;5.63;;
944;SDS011;459;48.676;9.034;2023-03-19T02:35:56;6.83;;;6.13;;
944;SDS011;459;48.676;9.034;2023-03-19T02:38:23;8.47;;;7.20;;
944;SDS011;459;48.676;9.034;2023-03-19T02:43:23;7.30;;;6.60;;
944;SDS011;459;48.676;9.034;2023-03-19T02:45:48;7.87;;;7.07;;
944;SDS011;459;48.676;9.034;2023-03-19T02:48:13;7.60;;;6.30;;
944;SDS011;459;48.676;9.034;2023-03-19T02:50:38;8.60;;;6.70;;
944;SDS011;459;48.676;9.034;2023-03-19T02:53:04;8.20;;;7.13;;
944;SDS011;459;48.676;9.034;2023-03-19T02:55:29;6.53;;;5.93;;
944;SDS011;459;48.676;9.034;2023-03-19T02:57:54;6.73;;;6.13;;
944;SDS011;459;48.676;9.034;2023-03-19T03:00:20;6.90;;;5.90;;
944;SDS011;459;48.676;9.034;2023-03-19T03:02:45;7.07;;;6.27;;
944;SDS011;459;48.676;9.034;2023-03-19T03:05:10;7.83;;;6.63;;
944;SDS011;459;48.676;9.034;2023-03-19T03:07:36;6.87;;;6.20;;
944;SDS011;459;48.676;9.034;2023-03-19T03:10:01;7.43;;;6.63;;
944;SDS011;459;48.676;9.034;2023-03-19T03:12:26;7.30;;;5.80;;
944;SDS011;459;48.676;9.034;2023-03-19T03:14:52;7.40;;;6.70;;
944;SDS011;459;48.676;9.034;2023-03-19T03:17:17;6.10;;;5.50;;
944;SDS011;459;48.676;9.034;2023-03-19T03:19:43;7.67;;;6.30;;
944;SDS011;459;48.676;9.034;2023-03-19T03:22:08;7.50;;;6.53;;
944;SDS011;459;48.676;9.034;2023-03-19T03:24:33;8.13;;;6.80;;
944;SDS011;459;48.676;9.034;2023-03-19T03:26:58;7.83;;;6.70;;
944;SDS011;459;48.676;9.034;2023-03-19T03:29:24;6.50;;;6.00;;
944;SDS011;459;48.676;9.034;2023-03-19T03:31:49;8.07;;;6.23;;
944;SDS011;459;48.676;9.034;2023-03-19T03:34:15;7.03;;;5.90;;
944;SDS011;459;48.676;9.034;2023-03-19T03:36:40;6.93;;;6.33;;
944;SDS011;459;48.676;9.034;2023-03-19T03:39:05;9.10;;;6.00;;
944;SDS011;459;48.676;9.034;2023-03-19T03:41:30;6.73;;;6.10;;
944;SDS011;459;48.676;9.034;2023-03-19T03:43:55;6.40;;;5.80;;
944;SDS011;459;48.676;9.034;2023-03-19T03:46:21;6.03;;;5.53;;
944;SDS011;459;48.676;9.034;2023-03-19T03:48:47;7.07;;;5.53;;
944;SDS011;459;48.676;9.034;2023-03-19T03:51:13;5.33;;;4.83;;
944;SDS011;459;48.676;9.034;2023-03-19T03:53:39;6.43;;;5.23;;
944;SDS011;459;48.676;9.034;2023-03-19T03:56:04;4.63;;;4.10;;
944;SDS011;459;48.676;9.034;2023-03-19T03:58:29;5.37;;;4.87;;
944;SDS011;459;48.676;9.034;2023-03-19T04:00:55;5.77;;;5.23;;
944;SDS011;459;48.676;9.034;2023-03-19T04:03:20;6.03;;;5.03;;
944;SDS011;459;48.676;9.034;2023-03-19T04:05:48;7.60;;;5.27;;
944;SDS011;459;48.676;9.034;2023-03-19T04:08:13;6.20;;;5.60;;
944;SDS011;459;48.676;9.034;2023-03-19T04:10:39;6.50;;;5.50;;
944;SDS011;459;48.676;9.034;2023-03-19T04:13:04;5.67;;;5.17;;
944;SDS011;459;48.676;9.034;2023-03-19T04:15:30;5.50;;;4.43;;
944;SDS011;459;48.676;9.034;2023-03-19T04:17:56;5.27;;;4.80;;
944;SDS011;459;48.676;9.034;2023-03-19T04:20:21;5.30;;;4.80;;
944;SDS011;459;48.676;9.034;2023-03-19T04:22:47;6.93;;;4.83;;
944;SDS011;459;48.676;9.034;2023-03-19T04:25:12;5.33;;;4.83;;
944;SDS011;459;48.676;9.034;2023-03-19T04:27:37;5.53;;;5.00;;
944;SDS011;459;48.676;9.034;2023-03-19T04:30:03;5.90;;;5.40;;
944;SDS011;459;48.676;9.034;2023-03-19T04:32:28;5.80;;;4.70;;
944;SDS011;459;48.676;9.034;2023-03-19T04:34:53;5.20;;;4.70;;
944;SDS011;459;48.676;9.034;2023-03-19T04:37:18;6.20;;;4.93;;
944;SDS011;459;48.676;9.034;2023-03-19T04:39:44;5.73;;;5.23;;
944;SDS011;459;48.676;9.034;2023-03-19T04:42:09;6.40;;;5.80;;
944;SDS011;459;48.676;9.034;2023-03-19T04:44:35;5.50;;;4.87;;
944;SDS011;459;48.676;9.034;2023-03-19T04:47:01;7.47;;;4.83;;
944;SDS011;459;48.676;9.034;2023-03-19T04:49:26;6.50;;;5.17;;
944;SDS011;459;48.676;9.034;2023-03-19T04:51:52;5.50;;;5.00;;
944;SDS011;459;48.676;9.034;2023-03-19T04:54:17;5.10;;;4.30;;
944;SDS011;459;48.676;9.034;2023-03-19T04:56:42;5.67;;;4.80;;
944;SDS011;459;48.676;9.034;2023-03-19T04:59:07;5.50;;;5.00;;
944;SDS011;459;48.676;9.034;2023-03-19T05:01:34;5.33;;;4.60;;
944;SDS011;459;48.676;9.034;2023-03-19T05:04:00;5.50;;;5.00;;
944;SDS011;459;48.676;9.034;2023-03-19T05:06:26;5.10;;;4.43;;
944;SDS011;459;48.676;9.034;2023-03-19T05:08:51;4.77;;;4.27;;
944;SDS011;459;48.676;9.034;2023-03-19T05:11:16;5.97;;;4.30;;
944;SDS011;459;48.676;9.034;2023-03-19T05:13:41;5.23;;;4.83;;
944;SDS011;459;48.676;9.034;2023-03-19T05:16:06;5.97;;;5.37;;
944;SDS011;459;48.676;9.034;2023-03-19T05:18:32;4.97;;;4.57;;
944;SDS011;459;48.676;9.034;2023-03-19T05:20:57;5.97;;;5.53;;
944;SDS011;459;48.676;9.034;2023-03-19T05:23:22;6.00;;;4.93;;
944;SDS011;459;48.676;9.034;2023-03-19T05:25:47;4.60;;;4.23;;
944;SDS011;459;48.676;9.034;2023-03-19T05:28:13;5.33;;;4.83;;
944;SDS011;459;48.676;9.034;2023-03-19T05:30:38;4.97;;;4.47;;
944;SDS011;459;48.676;9.034;2023-03-19T05:33:04;5.03;;;4.53;;
944;SDS011;459;48.676;9.034;2023-03-19T05:35:29;5.80;;;4.07;;
944;SDS011;459;48.676;9.034;2023-03-19T05:37:55;6.60;;;4.67;;
944;SDS011;459;48.676;9.034;2023-03-19T05:40:20;5.17;;;4.70;;
944;SDS011;459;48.676;9.034;2023-03-19T05:42:47;8.50;;;4.40;;
944;SDS011;459;48.676;9.034;2023-03-19T05:45:12;5.60;;;4.00;;
944;SDS011;459;48.676;9.034;2023-03-19T05:47:37;4.40;;;4.00;;
944;SDS011;459;48.676;9.034;2023-03-19T05:50:03;5.03;;;4.63;;
944;SDS011;459;48.676;9.034;2023-03-19T05:52:28;5.73;;;4.83;;
944;SDS011;459;48.676;9.034;2023-03-19T05:54:54;5.20;;;4.10;;
944;SDS011;459;48.676;9.034;2023-03-19T05:57:19;4.07;;;3.67;;
944;SDS011;459;48.676;9.034;2023-03-19T05:59:44;7.17;;;4.80;;
944;SDS011;459;48.676;9.034;2023-03-19T06:02:10;4.90;;;4.43;;
944;SDS011;459;48.676;9.034;2023-03-19T06:04:35;5.60;;;4.80;;
944;SDS011;459;48.676;9.034;2023-03-19T06:07:00;6.50;;;4.87;;
944;SDS011;459;48.676;9.034;2023-03-19T06:09:25;5.97;;;5.37;;
944;SDS011;459;48.676;9.034;2023-03-19T06:11:51;6.33;;;4.90;;
944;SDS011;459;48.676;9.034;2023-03-19T06:14:16;5.90;;;5.00;;
944;SDS011;459;48.676;9.034;2023-03-19T06:16:41;4.50;;;4.10;;
944;SDS011;459;48.676;9.034;2023-03-19T06:19:06;4.83;;;4.40;;
944;SDS011;459;48.676;9.034;2023-03-19T06:21:31;5.00;;;4.50;;
944;SDS011;459;48.676;9.034;2023-03-19T06:23:57;4.70;;;4.20;;
944;SDS011;459;48.676;9.034;2023-03-19T06:26:22;5.53;;;5.03;;
944;SDS011;459;48.676;9.034;2023-03-19T06:28:47;5.43;;;4.47;;
944;SDS011;459;48.676;9.034;2023-03-19T06:31:13;4.67;;;3.87;;
944;SDS011;459;48.676;9.034;2023-03-19T06:33:38;4.50;;;3.97;;
944;SDS011;459;48.676;9.034;2023-03-19T06:36:03;3.73;;;3.43;;
944;SDS011;459;48.676;9.034;2023-03-19T06:38:29;4.83;;;3.70;;
944;SDS011;459;48.676;9.034;2023-03-19T06:40:54;6.07;;;4.23;;
944;SDS011;459;48.676;9.034;2023-03-19T06:43:19;3.60;;;3.30;;
944;SDS011;459;48.676;9.034;2023-03-19T06:45:44;6.87;;;4.00;;
944;SDS011;459;48.676;9.034;2023-03-19T06:48:10;4.60;;;4.13;;
944;SDS011;459;48.676;9.034;2023-03-19T06:50:35;4.40;;;3.60;;
944;SDS011;459;48.676;9.034;2023-03-19T06:53:00;3.97;;;3.57;;
944;SDS011;459;48.676;9.034;2023-03-19T06:55:26;4.20;;;3.43;;
944;SDS011;459;48.676;9.034;2023-03-19T06:57:51;11.23;;;10.13;;
944;SDS011;459;48.676;9.034;2023-03-19T07:00:16;9.07;;;8.47;;
944;SDS011;459;48.676;9.034;2023-03-19T07:02:42;7.33;;;4.13;;
944;SDS011;459;48.676;9.034;2023-03-19T07:05:07;3.83;;;3.53;;
944;SDS011;459;48.676;9.034;2023-03-19T07:07:33;3.97;;;3.67;;
944;SDS011;459;48.676;9.034;2023-03-19T07:09:58;3.93;;;3.40;;
944;SDS011;459;48.676;9.034;2023-03-19T07:12:23;4.00;;;3.70;;
944;SDS011;459;48.676;9.034;2023-03-19T07:14:51;4.40;;;3.50;;
944;SDS011;459;48.676;9.034;2023-03-19T07:17:17;3.17;;;2.87;;
944;SDS011;459;48.676;9.034;2023-03-19T07:19:42;4.13;;;3.63;;
944;SDS011;459;48.676;9.034;2023-03-19T07:22:07;5.00;;;3.73;;
944;SDS011;459;48.676;9.034;2023-03-19T07:24:32;4.50;;;3.57;;
944;SDS011;459;48.676;9.034;2023-03-19T07:26:57;4.77;;;3.30;;
944;SDS011;459;48.676;9.034;2023-03-19T07:29:23;3.60;;;2.20;;
944;SDS011;459;48.676;9.034;2023-03-19T07:31:48;2.93;;;2.70;;
944;SDS011;459;48.676;9.034;2023-03-19T07:34:13;4.90;;;3.17;;
944;SDS011;459;48.676;9.034;2023-03-19T07:36:38;3.97;;;2.80;;
944;SDS011;459;48.676;9.034;2023-03-19T07:39:03;3.30;;;2.83;;
944;SDS011;459;48.676;9.034;2023-03-19T07:41:28;3.27;;;2.50;;
944;SDS011;459;48.676;9.034;2023-03-19T07:43:54;2.97;;;2.60;;
944;SDS011;459;48.676;9.034;2023-03-19T07:46:19;3.30;;;3.00;;
944;SDS011;459;48.676;9.034;2023-03-19T07:48:45;12.40;;;3.53;;
944;SDS011;459;48.676;9.034;2023-03-19T07:51:10;4.60;;;3.90;;
944;SDS011;459;48.676;9.034;2023-03-19T07:53:36;5.57;;;3.23;;
944;SDS011;459;48.676;9.034;2023-03-19T07:56:01;2.73;;;2.43;;
944;SDS011;459;48.676;9.034;2023-03-19T07:58:26;4.93;;;3.20;;
944;SDS011;459;48.676;9.034;2023-03-19T08:00:52;2.50;;;2.30;;
944;SDS011;459;48.676;9.034;2023-03-19T08:03:17;4.40;;;3.03;;
944;SDS011;459;48.676;9.034;2023-03-19T08:05:42;6.73;;;4.53;;
944;SDS011;459;48.676;9.034;2023-03-19T08:08:07;3.17;;;2.67;;
944;SDS011;459;48.676;9.034;2023-03-19T08:10:33;3.20;;;2.70;;
944;SDS011;459;48.676;9.034;2023-03-19T08:12:58;4.33;;;2.47;;
944;SDS011;459;48.676;9.034;2023-03-19T08:15:23;3.23;;;2.20;;
944;SDS011;459;48.676;9.034;2023-03-19T08:17:48;3.00;;;2.33;;
944;SDS011;459;48.676;9.034;2023-03-19T08:20:14;3.13;;;2.20;;
944;SDS011;459;48.676;9.034;2023-03-19T08:22:42;2.50;;;2.30;;
944;SDS011;459;48.676;9.034;2023-03-19T08:25:08;2.73;;;2.33;;
944;SDS011;459;48.676;9.034;2023-03-19T08:27:34;2.90;;;2.60;;
944;SDS011;459;48.676;9.034;2023-03-19T08:30:01;3.17;;;2.30;;
944;SDS011;459;48.676;9.034;2023-03-19T08:32:26;2.27;;;2.07;;
944;SDS011;459;48.676;9.034;2023-03-19T08:34:52;2.20;;;2.00;;
944;SDS011;459;48.676;9.034;2023-03-19T08:37:17;3.00;;;2.20;;
944;SDS011;459;48.676;9.034;2023-03-19T08:39:42;2.63;;;2.43;;
944;SDS011;459;48.676;9.034;2023-03-19T08:42:08;2.60;;;2.33;;
944;SDS011;459;48.676;9.034;2023-03-19T08:44:33;2.83;;;2.47;;
944;SDS011;459;48.676;9.034;2023-03-19T08:46:59;2.70;;;2.47;;
944;SDS011;459;48.676;9.034;2023-03-19T08:49:24;4.40;;;2.23;;
944;SDS011;459;48.676;9.034;2023-03-19T08:51:49;3.43;;;2.77;;
944;SDS011;459;48.676;9.034;2023-03-19T08:54:15;4.70;;;2.57;;
944;SDS011;459;48.676;9.034;2023-03-19T08:56:41;3.00;;;2.80;;
944;SDS011;459;48.676;9.034;2023-03-19T08:59:06;3.23;;;2.47;;
944;SDS011;459;48.676;9.034;2023-03-19T09:01:31;2.27;;;1.83;;
944;SDS011;459;48.676;9.034;2023-03-19T09:03:57;2.43;;;2.23;;
944;SDS011;459;48.676;9.034;2023-03-19T09:06:22;1.97;;;1.83;;
944;SDS011;459;48.676;9.034;2023-03-19T09:08:47;2.57;;;1.97;;
944;SDS011;459;48.676;9.034;2023-03-19T09:11:12;3.37;;;2.60;;
944;SDS011;459;48.676;9.034;2023-03-19T09:13:38;1.90;;;1.70;;
944;SDS011;459;48.676;9.034;2023-03-19T09:16:03;2.97;;;2.30;;
944;SDS011;459;48.676;9.034;2023-03-19T09:18:29;2.50;;;2.30;;
944;SDS011;459;48.676;9.034;2023-03-19T09:20:54;2.30;;;2.10;;
944;SDS011;459;48.676;9.034;2023-03-19T09:23:20;2.07;;;1.87;;
944;SDS011;459;48.676;9.034;2023-03-19T09:25:45;4.97;;;3.73;;
944;SDS011;459;48.676;9.034;2023-03-19T09:28:11;2.60;;;2.40;;
944;SDS011;459;48.676;9.034;2023-03-19T09:30:36;3.30;;;3.00;;
944;SDS011;459;48.676;9.034;2023-03-19T09:33:03;2.47;;;2.20;;
944;SDS011;459;48.676;9.034;2023-03-19T09:35:28;2.50;;;2.10;;
944;SDS011;459;48.676;9.034;2023-03-19T09:37:56;6.87;;;1.77;;
944;SDS011;459;48.676;9.034;2023-03-19T09:40:24;2.50;;;2.30;;
944;SDS011;459;48.676;9.034;2023-03-19T09:43:02;3.73;;;2.50;;
944;SDS011;459;48.676;9.034;2023-03-19T09:45:30;3.17;;;2.17;;
944;SDS011;459;48.676;9.034;2023-03-19T09:47:57;2.30;;;2.10;;
944;SDS011;459;48.676;9.034;2023-03-19T09:50:24;2.00;;;1.60;;
944;SDS011;459;48.676;9.034;2023-03-19T09:55:27;4.50;;;2.37;;
944;SDS011;459;48.676;9.034;2023-03-19T09:57:55;2.43;;;1.77;;
944;SDS011;459;48.676;9.034;2023-03-19T10:00:25;2.70;;;2.00;;
944;SDS011;459;48.676;9.034;2023-03-19T10:03:03;1.70;;;1.10;;
944;SDS011;459;48.676;9.034;2023-03-19T10:05:38;3.97;;;2.27;;
944;SDS011;459;48.676;9.034;2023-03-19T10:08:12;1.50;;;1.40;;
944;SDS011;459;48.676;9.034;2023-03-19T10:10:44;2.70;;;2.03;;
944;SDS011;459;48.676;9.034;2023-03-19T10:13:28;2.80;;;2.50;;
944;SDS011;459;48.676;9.034;2023-03-19T10:15:57;3.20;;;2.23;;
944;SDS011;459;48.676;9.034;2023-03-19T10:18:25;3.10;;;2.30;;
944;SDS011;459;48.676;9.034;2023-03-19T10:25:55;4.73;;;3.17;;
944;SDS011;459;48.676;9.034;2023-03-19T10:28:22;3.00;;;2.70;;
944;SDS011;459;48.676;9.034;2023-03-19T10:30:51;3.43;;;2.80;;
944;SDS011;459;48.676;9.034;2023-03-19T10:33:23;5.83;;;2.73;;
944;SDS011;459;48.676;9.034;2023-03-19T10:35:52;5.40;;;2.90;;
944;SDS011;459;48.676;9.034;2023-03-19T10:38:21;5.10;;;3.53;;
944;SDS011;459;48.676;9.034;2023-03-19T10:40:49;3.50;;;3.00;;
944;SDS011;459;48.676;9.034;2023-03-19T10:43:16;4.87;;;3.20;;
944;SDS011;459;48.676;9.034;2023-03-19T10:45:44;4.23;;;2.63;;
944;SDS011;459;48.676;9.034;2023-03-19T10:48:15;3.30;;;2.57;;
944;SDS011;459;48.676;9.034;2023-03-19T10:50:47;6.67;;;2.63;;
944;SDS011;459;48.676;9.034;2023-03-19T10:55:50;4.10;;;2.10;;
944;SDS011;459;48.676;9.034;2023-03-19T10:58:18;2.97;;;2.30;;
944;SDS011;459;48.676;9.034;2023-03-19T11:00:47;3.20;;;2.03;;
944;SDS011;459;48.676;9.034;2023-03-19T11:03:28;2.20;;;2.00;;
944;SDS011;459;48.676;9.034;2023-03-19T11:08:37;4.33;;;2.53;;
944;SDS011;459;48.676;9.034;2023-03-19T11:11:02;2.80;;;1.97;;
944;SDS011;459;48.676;9.034;2023-03-19T11:13:28;2.57;;;2.10;;
944;SDS011;459;48.676;9.034;2023-03-19T11:15:53;2.70;;;1.43;;
944;SDS011;459;48.676;9.034;2023-03-19T11:18:22;2.50;;;2.10;;
944;SDS011;459;48.676;9.034;2023-03-19T11:20:48;3.07;;;2.37;;
944;SDS011;459;48.676;9.034;2023-03-19T11:23:15;3.30;;;2.83;;
944;SDS011;459;48.676;9.034;2023-03-19T11:25:45;6.37;;;2.30;;
944;SDS011;459;48.676;9.034;2023-03-19T11:28:12;2.77;;;1.90;;
944;SDS011;459;48.676;9.034;2023-03-19T11:30:42;2.70;;;2.50;;
944;SDS011;459;48.676;9.034;2023-03-19T11:35:40;3.17;;;2.40;;
944;SDS011;459;48.676;9.034;2023-03-19T11:38:08;8.13;;;2.73;;
944;SDS011;459;48.676;9.034;2023-03-19T11:40:43;5.70;;;2.90;;
944;SDS011;459;48.676;9.034;2023-03-19T11:48:41;2.30;;;1.97;;
944;SDS011;459;48.676;9.034;2023-03-19T11:51:25;2.70;;;2.50;;
944;SDS011;459;48.676;9.034;2023-03-19T11:53:56;4.20;;;2.83;;
944;SDS011;459;48.676;9.034;2023-03-19T11:59:14;2.10;;;1.97;;
944;SDS011;459;48.676;9.034;2023-03-19T12:06:48;5.20;;;2.80;;
944;SDS011;459;48.676;9.034;2023-03-19T12:11:46;3.50;;;2.73;;
944;SDS011;459;48.676;9.034;2023-03-19T12:21:58;2.93;;;2.63;;
944;SDS011;459;48.676;9.034;2023-03-19T12:24:35;5.33;;;2.53;;
944;SDS011;459;48.676;9.034;2023-03-19T12:29:51;2.77;;;2.30;;
944;SDS011;459;48.676;9.034;2023-03-19T12:34:51;3.00;;;1.97;;
944;SDS011;459;48.676;9.034;2023-03-19T12:42:31;3.03;;;2.70;;
944;SDS011;459;48.676;9.034;2023-03-19T12:44:58;2.53;;;2.10;;
944;SDS011;459;48.676;9.034;2023-03-19T12:47:26;3.03;;;2.40;;
944;SDS011;459;48.676;9.034;2023-03-19T12:50:08;3.00;;;2.20;;
944;SDS011;459;48.676;9.034;2023-03-19T12:52:39;2.77;;;2.57;;
944;SDS011;459;48.676;9.034;2023-03-19T12:58:11;2.17;;;1.70;;
944;SDS011;459;48.676;9.034;2023-03-19T13:10:55;5.90;;;2.23;;
944;SDS011;459;48.676;9.034;2023-03-19T13:15:58;2.90;;;2.37;;
944;SDS011;459;48.676;9.034;2023-03-19T13:18:47;3.10;;;2.43;;
944;SDS011;459;48.676;9.034;2023-03-19T13:21:20;2.00;;;1.67;;
944;SDS011;459;48.676;9.034;2023-03-19T13:23:46;2.30;;;1.87;;
944;SDS011;459;48.676;9.034;2023-03-19T13:26:12;2.73;;;2.47;;
944;SDS011;459;48.676;9.034;2023-03-19T13:29:00;1.57;;;1.47;;
944;SDS011;459;48.676;9.034;2023-03-19T13:31:24;1.93;;;1.30;;
944;SDS011;459;48.676;9.034;2023-03-19T13:33:59;2.23;;;1.90;;
944;SDS011;459;48.676;9.034;2023-03-19T13:36:27;2.80;;;1.60;;
944;SDS011;459;48.676;9.034;2023-03-19T13:38:52;2.77;;;2.10;;
944;SDS011;459;48.676;9.034;2023-03-19T13:43:57;4.10;;;2.80;;
944;SDS011;459;48.676;9.034;2023-03-19T13:48:49;2.80;;;2.33;;
944;SDS011;459;48.676;9.034;2023-03-19T13:53:42;2.30;;;1.90;;
944;SDS011;459;48.676;9.034;2023-03-19T13:56:16;3.00;;;2.70;;
944;SDS011;459;48.676;9.034;2023-03-19T13:58:50;2.80;;;2.60;;
944;SDS011;459;48.676;9.034;2023-03-19T14:06:44;2.60;;;2.10;;
944;SDS011;459;48.676;9.034;2023-03-19T14:14:45;4.30;;;2.80;;
944;SDS011;459;48.676;9.034;2023-03-19T14:17:14;4.67;;;2.40;;
944;SDS011;459;48.676;9.034;2023-03-19T14:19:40;2.93;;;2.40;;
944;SDS011;459;48.676;9.034;2023-03-19T14:22:17;1.90;;;1.13;;
944;SDS011;459;48.676;9.034;2023-03-19T14:27:47;3.10;;;2.43;;
944;SDS011;459;48.676;9.034;2023-03-19T14:30:36;3.30;;;2.47;;
944;SDS011;459;48.676;9.034;2023-03-19T14:32:59;2.30;;;1.97;;
944;SDS011;459;48.676;9.034;2023-03-19T14:35:26;5.40;;;2.23;;
944;SDS011;459;48.676;9.034;2023-03-19T14:37:52;3.37;;;2.20;;
944;SDS011;459;48.676;9.034;2023-03-19T14:40:21;2.93;;;2.63;;
944;SDS011;459;48.676;9.034;2023-03-19T14:47:41;3.20;;;2.70;;
944;SDS011;459;48.676;9.034;2023-03-19T14:55:55;2.80;;;1.90;;
944;SDS011;459;48.676;9.034;2023-03-19T14:58:26;3.93;;;2.23;;
944;SDS011;459;48.676;9.034;2023-03-19T15:00:52;4.33;;;2.30;;
944;SDS011;459;48.676;9.034;2023-03-19T15:03:19;3.20;;;2.73;;
944;SDS011;459;48.676;9.034;2023-03-19T15:05:45;4.20;;;3.17;;
944;SDS011;459;48.676;9.034;2023-03-19T15:08:14;2.67;;;2.40;;
944;SDS011;459;48.676;9.034;2023-03-19T15:10:47;3.43;;;2.23;;
944;SDS011;459;48.676;9.034;2023-03-19T15:15:54;3.47;;;2.47;;
944;SDS011;459;48.676;9.034;2023-03-19T15:18:21;4.07;;;3.73;;
944;SDS011;459;48.676;9.034;2023-03-19T15:20:52;2.63;;;2.43;;
944;SDS011;459;48.676;9.034;2023-03-19T15:23:21;1.90;;;1.80;;
944;SDS011;459;48.676;9.034;2023-03-19T15:25:50;2.37;;;2.17;;
944;SDS011;459;48.676;9.034;2023-03-19T15:28:16;3.20;;;2.20;;
944;SDS011;459;48.676;9.034;2023-03-19T15:30:43;4.20;;;2.43;;
944;SDS011;459;48.676;9.034;2023-03-19T15:33:24;3.30;;;2.47;;
944;SDS011;459;48.676;9.034;2023-03-19T15:35:56;4.40;;;2.90;;
944;SDS011;459;48.676;9.034;2023-03-19T15:38:22;3.00;;;2.63;;
944;SDS011;459;48.676;9.034;2023-03-19T15:40:49;3.23;;;2.67;;
944;SDS011;459;48.676;9.034;2023-03-19T15:43:15;3.60;;;2.70;;
944;SDS011;459;48.676;9.034;2023-03-19T15:45:41;3.90;;;2.80;;
944;SDS011;459;48.676;9.034;2023-03-19T15:51:06;3.10;;;2.73;;
944;SDS011;459;48.676;9.034;2023-03-19T15:53:32;5.13;;;3.80;;
944;SDS011;459;48.676;9.034;2023-03-19T15:55:58;3.77;;;3.10;;
944;SDS011;459;48.676;9.034;2023-03-19T15:58:26;3.43;;;3.23;;
944;SDS011;459;48.676;9.034;2023-03-19T16:00:52;3.87;;;3.47;;
944;SDS011;459;48.676;9.034;2023-03-19T16:03:18;3.97;;;3.67;;
944;SDS011;459;48.676;9.034;2023-03-19T16:05:44;3.57;;;3.17;;
944;SDS011;459;48.676;9.034;2023-03-19T16:08:22;4.27;;;3.87;;
944;SDS011;459;48.676;9.034;2023-03-19T16:10:48;4.83;;;4.47;;
944;SDS011;459;48.676;9.034;2023-03-19T16:15:55;3.40;;;3.10;;
944;SDS011;459;48.676;9.034;2023-03-19T16:21:32;4.45;;;2.90;;
944;SDS011;459;48.676;9.034;2023-03-19T16:23:35;3.80;;;3.40;;
944;SDS011;459;48.676;9.034;2023-03-19T16:26:03;3.90;;;3.60;;
944;SDS011;459;48.676;9.034;2023-03-19T16:28:29;5.70;;;4.10;;
944;SDS011;459;48.676;9.034;2023-03-19T16:30:54;8.30;;;4.77;;
944;SDS011;459;48.676;9.034;2023-03-19T16:33:19;8.27;;;5.50;;
944;SDS011;459;48.676;9.034;2023-03-19T16:35:45;6.53;;;5.20;;
944;SDS011;459;48.676;9.034;2023-03-19T16:38:14;11.00;;;5.83;;
944;SDS011;459;48.676;9.034;2023-03-19T16:43:07;7.53;;;6.80;;
944;SDS011;459;48.676;9.034;2023-03-19T16:45:32;8.53;;;7.30;;
944;SDS011;459;48.676;9.034;2023-03-19T16:47:59;6.93;;;6.30;;
944;SDS011;459;48.676;9.034;2023-03-19T16:50:28;7.80;;;5.93;;
944;SDS011;459;48.676;9.034;2023-03-19T16:52:54;8.63;;;7.77;;
944;SDS011;459;48.676;9.034;2023-03-19T16:58:09;10.63;;;8.40;;
944;SDS011;459;48.676;9.034;2023-03-19T17:00:36;11.80;;;7.40;;
944;SDS011;459;48.676;9.034;2023-03-19T17:03:01;7.00;;;5.97;;
944;SDS011;459;48.676;9.034;2023-03-19T17:05:27;6.40;;;5.80;;
944;SDS011;459;48.676;9.034;2023-03-19T17:07:52;15.17;;;9.07;;
944;SDS011;459;48.676;9.034;2023-03-19T17:10:21;8.60;;;7.37;;
944;SDS011;459;48.676;9.034;2023-03-19T17:12:48;11.97;;;6.20;;
944;SDS011;459;48.676;9.034;2023-03-19T17:15:20;8.47;;;7.60;;
944;SDS011;459;48.676;9.034;2023-03-19T17:17:46;13.47;;;8.53;;
944;SDS011;459;48.676;9.034;2023-03-19T17:20:16;9.50;;;7.00;;
944;SDS011;459;48.676;9.034;2023-03-19T17:22:42;13.70;;;8.90;;
944;SDS011;459;48.676;9.034;2023-03-19T17:25:10;10.20;;;6.67;;
944;SDS011;459;48.676;9.034;2023-03-19T17:27:41;9.60;;;5.80;;
944;SDS011;459;48.676;9.034;2023-03-19T17:30:06;8.73;;;7.10;;
944;SDS011;459;48.676;9.034;2023-03-19T17:32:32;5.93;;;3.63;;
944;SDS011;459;48.676;9.034;2023-03-19T17:34:57;10.90;;;7.00;;
944;SDS011;459;48.676;9.034;2023-03-19T17:37:22;8.83;;;4.97;;
944;SDS011;459;48.676;9.034;2023-03-19T17:39:47;4.60;;;4.13;;